Terminal Aerodrome Forecast
Issued by NWS

Home | Current Version | Previous Version | Text Only | Print | Product List | Glossary Off
Versions: 1 2 3 4 5 6 7 8 9 10 11 12 13 14 15 16 17 18 19 20 21 22 23 24 25 26

526
FTUS43 KTOP 291525 AAA
TAFFOE
TAF AMD
KFOE 291525Z 2915/3012 03014G24KT 3SM RA VCTS OVC007CB
      TEMPO 2918/2922 6SM -SHRA BR SCT007 OVC035
     FM292200 03015G24KT 5SM -RA VCTS OVC007CB
     FM300300 03014G23KT 5SM -RA BR OVC004=

USA.gov is the U.S. government's official web portal to all federal, state and local government web resources and services.